Mount Lawley Perth Metro, Australia
Current Conditions -  °F | °C
As of 10:30 PM on Sunday 23 Nov 2014 (Local Time) from YPPH Reporting Station
Clear Clear  
Wind Chill: 61°   Ceiling: Unl
Heat Index: 61°   Visibility: 6mi
Dew Point: 45°   Wind: 17mph
Humidity: 55%   Direction: 200°SSW
Pressure: 30.12"   Gusts: NA
Location:  31.92°S, 115.87°E
Report Text: YPPH 231430Z 20015KT CAVOK 16/07 Q1020
Loading
Personal Weather Stations






























Interactive Weather Map New forecast layout! Learn more

10-Day Weather Forecast

Advertisements
Track Severe Weather on mobile